Tuesday, January 22, 2019, 4:27 PM EST
Back to Local

KPBG, Plattsburgh International Airport

Location: Plattsburgh, NY, United States Lat: 44.65
Local Time: 4:27 PM EST (21:27 GMT) Lon: -73.467
Time Zone: US/Eastern Elev: 239 ft

Show me the last for .
Show Decoded

2019-01-22 15:53 METAR KPBG 222053Z AUTO 11005KT 10SM CLR M12/M17 A3058 RMK AO2 SLP363 60000
                 T11171172 56008 =
2019-01-22 14:53 METAR KPBG 221953Z AUTO 13007KT 10SM CLR M12/M16 A3059 RMK AO2 UPE11 SLP366
                 P0000 T11171161 =
2019-01-22 13:53 METAR KPBG 221853Z AUTO 13007KT 10SM UP CLR M12/M16 A3059 RMK AO2 UPB35 SLP367
                 P0000 T11221161 =
2019-01-22 13:15 METAR KPBG 221815Z AUTO 14006KT 10SM FEW008 M13/M16 A3060 RMK AO2 T11281161 =
2019-01-22 12:53 METAR KPBG 221753Z AUTO VRB05KT 10SM CLR M13/M17 A3061 RMK AO2 SLP371 60000
                 T11331172 11133 21267 58007 =
2019-01-22 11:53 METAR KPBG 221653Z AUTO 00000KT 10SM CLR M14/M18 A3062 RMK AO2 SNB1559E46 SLP377
                 P0000 T11441183 =
2019-01-22 10:53 METAR KPBG 221553Z AUTO 12005KT 10SM CLR M17/M21 A3062 RMK AO2 SLP376 T11671211
                 =
2019-01-22 09:53 METAR KPBG 221453Z AUTO 12004KT 10SM CLR M18/M22 A3063 RMK AO2 SNB08E14 SLP379
                 P0000 60000 T11781217 51022 =
2019-01-22 08:53 METAR KPBG 221353Z AUTO 00000KT 10SM CLR M19/M22 A3062 RMK AO2 SLP375 T11891217
                 =
2019-01-22 07:53 METAR KPBG 221253Z AUTO 25004KT 10SM CLR M21/M26 A3059 RMK AO2 SLP367 T12061261
                 =
2019-01-22 06:53 METAR KPBG 221153Z AUTO 00000KT 10SM CLR M25/M28 A3056 RMK AO2 SLP358 T12501278
                 11178 21261 52036 =
2019-01-22 05:53 METAR KPBG 221053Z AUTO 00000KT 10SM CLR M25/M28 A3053 RMK AO2 SLP345 T12501278
                 =
2019-01-22 04:53 METAR KPBG 220953Z AUTO 00000KT 10SM CLR M23/M27 A3049 RMK AO2 SLP334 T12281267
                 =
2019-01-22 03:53 METAR KPBG 220853Z AUTO 00000KT 10SM CLR M23/M27 A3046 RMK AO2 SLP321 T12281267
                 51023 =
2019-01-22 02:53 METAR KPBG 220753Z AUTO 00000KT 10SM CLR M19/M26 A3044 RMK AO2 SLP316 T11941256
                 =
2019-01-22 01:53 METAR KPBG 220653Z AUTO 28008KT 10SM CLR M18/M25 A3042 RMK AO2 SLP308 T11831250
                 =
2019-01-22 00:53 METAR KPBG 220553Z AUTO 28008KT 250V310 10SM CLR M18/M25 A3039 RMK AO2 SLP297
                 T11781250 11167 21183 51038 =
2019-01-21 23:53 METAR KPBG 220453Z AUTO 27003KT 10SM CLR M18/M25 A3036 RMK AO2 SLP287 T11781250
                 411671217 =
2019-01-21 22:53 METAR KPBG 220353Z AUTO 30010G19KT 10SM CLR M17/M25 A3032 RMK AO2 SLP274
                 T11721250 =
2019-01-21 21:53 METAR KPBG 220253Z AUTO 30008KT 10SM CLR M17/M25 A3027 RMK AO2 SLP259 T11721250
                 53039 =
2019-01-21 20:53 METAR KPBG 220153Z AUTO 31013G22KT 10SM CLR M17/M26 A3023 RMK AO2 SLP245
                 T11671256 =
2019-01-21 19:53 METAR KPBG 220053Z AUTO 31010G22KT 9SM CLR M17/M26 A3019 RMK AO2 PK WND
                 30028/0027 SLP232 T11721261 =
2019-01-21 18:53 METAR KPBG 212353Z AUTO 30011G20KT 10SM CLR M17/M26 A3016 RMK AO2 SLP220 60000
                 T11721261 11172 21183 52033 =
2019-01-21 17:53 METAR KPBG 212253Z AUTO 29011G23KT 10SM SCT075 BKN100 OVC120 M17/M27 A3013 RMK
                 AO2 SLP211 T11721267 =
2019-01-21 16:53 METAR KPBG 212153Z AUTO 29010G20KT 10SM BKN095 M18/M27 A3009 RMK AO2 SLP197
                 T11781267 =

Support USWX by starting your Amazon purchase here.